sensor_id;sensor_type;location;lat;lon;timestamp;pressure;altitude;pressure_sealevel;temperature
40047;BMP280;31510;48.122;11.576;2022-08-25T00:00:04;95803.59;;;19.01
40047;BMP280;31510;48.122;11.576;2022-08-25T00:02:30;95808.25;;;18.95
40047;BMP280;31510;48.122;11.576;2022-08-25T00:04:59;95806.03;;;18.93
40047;BMP280;31510;48.122;11.576;2022-08-25T00:07:30;95804.06;;;18.94
40047;BMP280;31510;48.122;11.576;2022-08-25T00:09:55;95795.94;;;18.94
40047;BMP280;31510;48.122;11.576;2022-08-25T00:12:20;95797.91;;;18.93
40047;BMP280;31510;48.122;11.576;2022-08-25T00:14:46;95799.88;;;18.93
40047;BMP280;31510;48.122;11.576;2022-08-25T00:17:11;95796.44;;;18.92
40047;BMP280;31510;48.122;11.576;2022-08-25T00:19:37;95793.47;;;18.90
40047;BMP280;31510;48.122;11.576;2022-08-25T00:22:08;95797.91;;;18.88
40047;BMP280;31510;48.122;11.576;2022-08-25T00:24:35;95791.25;;;18.83
40047;BMP280;31510;48.122;11.576;2022-08-25T00:27:01;95797.38;;;18.78
40047;BMP280;31510;48.122;11.576;2022-08-25T00:29:27;95793.69;;;18.76
40047;BMP280;31510;48.122;11.576;2022-08-25T00:31:54;95789.03;;;18.77
40047;BMP280;31510;48.122;11.576;2022-08-25T00:34:24;95796.66;;;18.78
40047;BMP280;31510;48.122;11.576;2022-08-25T00:36:52;95796.41;;;18.76
40047;BMP280;31510;48.122;11.576;2022-08-25T00:39:20;95789.50;;;18.75
40047;BMP280;31510;48.122;11.576;2022-08-25T00:41:48;95791.47;;;18.75
40047;BMP280;31510;48.122;11.576;2022-08-25T00:44:14;95789.25;;;18.73
40047;BMP280;31510;48.122;11.576;2022-08-25T00:46:46;95795.16;;;18.72
40047;BMP280;31510;48.122;11.576;2022-08-25T00:49:19;95792.97;;;18.70
40047;BMP280;31510;48.122;11.576;2022-08-25T00:51:58;95787.28;;;18.68
40047;BMP280;31510;48.122;11.576;2022-08-25T00:54:33;95789.75;;;18.66
40047;BMP280;31510;48.122;11.576;2022-08-25T00:57:00;95782.88;;;18.65
40047;BMP280;31510;48.122;11.576;2022-08-25T00:59:26;95781.88;;;18.63
40047;BMP280;31510;48.122;11.576;2022-08-25T01:01:53;95774.75;;;18.60
40047;BMP280;31510;48.122;11.576;2022-08-25T01:04:19;95772.53;;;18.58
40047;BMP280;31510;48.122;11.576;2022-08-25T01:06:50;95769.34;;;18.54
40047;BMP280;31510;48.122;11.576;2022-08-25T01:09:18;95769.34;;;18.49
40047;BMP280;31510;48.122;11.576;2022-08-25T01:11:45;95770.78;;;18.44
40047;BMP280;31510;48.122;11.576;2022-08-25T01:14:14;95766.59;;;18.43
40047;BMP280;31510;48.122;11.576;2022-08-25T01:16:40;95769.28;;;18.43
40047;BMP280;31510;48.122;11.576;2022-08-25T01:19:08;95767.84;;;18.42
40047;BMP280;31510;48.122;11.576;2022-08-25T01:21:46;95773.72;;;18.41
40047;BMP280;31510;48.122;11.576;2022-08-25T01:27:05;95770.78;;;18.39
40047;BMP280;31510;48.122;11.576;2022-08-25T01:29:31;95769.03;;;18.41
40047;BMP280;31510;48.122;11.576;2022-08-25T01:32:00;95763.41;;;18.39
40047;BMP280;31510;48.122;11.576;2022-08-25T01:34:30;95767.34;;;18.39
40047;BMP280;31510;48.122;11.576;2022-08-25T01:36:57;95774.44;;;18.36
40047;BMP280;31510;48.122;11.576;2022-08-25T01:39:24;95774.19;;;18.34
40047;BMP280;31510;48.122;11.576;2022-08-25T01:44:27;95771.25;;;18.32
40047;BMP280;31510;48.122;11.576;2022-08-25T01:46:53;95771.47;;;18.29
40047;BMP280;31510;48.122;11.576;2022-08-25T01:49:19;95769.00;;;18.25
40047;BMP280;31510;48.122;11.576;2022-08-25T01:51:59;95773.91;;;18.21
40047;BMP280;31510;48.122;11.576;2022-08-25T01:54:27;95756.44;;;18.17
40047;BMP280;31510;48.122;11.576;2022-08-25T01:56:52;95761.84;;;18.17
40047;BMP280;31510;48.122;11.576;2022-08-25T01:59:19;95758.41;;;18.16
40047;BMP280;31510;48.122;11.576;2022-08-25T02:01:45;95766.25;;;18.14
40047;BMP280;31510;48.122;11.576;2022-08-25T02:04:10;95755.22;;;18.12
40047;BMP280;31510;48.122;11.576;2022-08-25T02:06:40;95754.22;;;18.10
40047;BMP280;31510;48.122;11.576;2022-08-25T02:09:10;95757.34;;;18.08
40047;BMP280;31510;48.122;11.576;2022-08-25T02:11:38;95763.50;;;18.09
40047;BMP280;31510;48.122;11.576;2022-08-25T02:14:05;95767.41;;;18.08
40047;BMP280;31510;48.122;11.576;2022-08-25T02:16:33;95765.94;;;18.01
40047;BMP280;31510;48.122;11.576;2022-08-25T02:18:59;95765.41;;;17.98
40047;BMP280;31510;48.122;11.576;2022-08-25T02:21:28;95765.41;;;17.98
40047;BMP280;31510;48.122;11.576;2022-08-25T02:23:56;95758.56;;;17.97
40047;BMP280;31510;48.122;11.576;2022-08-25T02:26:22;95759.75;;;17.96
40047;BMP280;31510;48.122;11.576;2022-08-25T02:28:49;95764.44;;;17.95
40047;BMP280;31510;48.122;11.576;2022-08-25T02:31:16;95770.31;;;17.94
40047;BMP280;31510;48.122;11.576;2022-08-25T02:33:42;95770.03;;;17.92
40047;BMP280;31510;48.122;11.576;2022-08-25T02:36:12;95771.47;;;17.87
40047;BMP280;31510;48.122;11.576;2022-08-25T02:38:38;95766.81;;;17.82
40047;BMP280;31510;48.122;11.576;2022-08-25T02:41:10;95758.44;;;17.80
40047;BMP280;31510;48.122;11.576;2022-08-25T02:43:37;95758.69;;;17.77
40047;BMP280;31510;48.122;11.576;2022-08-25T02:46:03;95758.69;;;17.77
40047;BMP280;31510;48.122;11.576;2022-08-25T02:48:28;95760.88;;;17.78
40047;BMP280;31510;48.122;11.576;2022-08-25T02:51:00;95756.72;;;17.77
40047;BMP280;31510;48.122;11.576;2022-08-25T02:53:28;95755.47;;;17.73
40047;BMP280;31510;48.122;11.576;2022-08-25T02:55:55;95753.00;;;17.69
40047;BMP280;31510;48.122;11.576;2022-08-25T02:58:21;95750.03;;;17.67
40047;BMP280;31510;48.122;11.576;2022-08-25T03:00:47;95751.28;;;17.66
40047;BMP280;31510;48.122;11.576;2022-08-25T03:03:13;95751.50;;;17.63
40047;BMP280;31510;48.122;11.576;2022-08-25T03:05:42;95744.16;;;17.63
40047;BMP280;31510;48.122;11.576;2022-08-25T03:08:09;95738.97;;;17.60
40047;BMP280;31510;48.122;11.576;2022-08-25T03:10:35;95749.28;;;17.61
40047;BMP280;31510;48.122;11.576;2022-08-25T03:13:01;95753.66;;;17.59
40047;BMP280;31510;48.122;11.576;2022-08-25T03:15:26;95741.16;;;17.56
40047;BMP280;31510;48.122;11.576;2022-08-25T03:17:53;95739.94;;;17.57
40047;BMP280;31510;48.122;11.576;2022-08-25T03:20:28;95740.91;;;17.54
40047;BMP280;31510;48.122;11.576;2022-08-25T03:22:58;95749.47;;;17.53
40047;BMP280;31510;48.122;11.576;2022-08-25T03:25:24;95743.34;;;17.52
40047;BMP280;31510;48.122;11.576;2022-08-25T03:28:08;95732.81;;;17.54
40047;BMP280;31510;48.122;11.576;2022-08-25T03:30:35;95745.31;;;17.57
40047;BMP280;31510;48.122;11.576;2022-08-25T03:33:00;95742.13;;;17.53
40047;BMP280;31510;48.122;11.576;2022-08-25T03:35:25;95739.19;;;17.51
40047;BMP280;31510;48.122;11.576;2022-08-25T03:37:55;95732.78;;;17.49
40047;BMP280;31510;48.122;11.576;2022-08-25T03:40:21;95732.25;;;17.45
40047;BMP280;31510;48.122;11.576;2022-08-25T03:42:47;95733.00;;;17.45
40047;BMP280;31510;48.122;11.576;2022-08-25T03:45:14;95733.22;;;17.42
40047;BMP280;31510;48.122;11.576;2022-08-25T03:47:41;95734.66;;;17.37
40047;BMP280;31510;48.122;11.576;2022-08-25T03:50:11;95736.16;;;17.38
40047;BMP280;31510;48.122;11.576;2022-08-25T03:52:43;95731.72;;;17.35
40047;BMP280;31510;48.122;11.576;2022-08-25T03:55:12;95725.59;;;17.35
40047;BMP280;31510;48.122;11.576;2022-08-25T03:57:38;95725.84;;;17.37
40047;BMP280;31510;48.122;11.576;2022-08-25T04:00:08;95727.28;;;17.32
40047;BMP280;31510;48.122;11.576;2022-08-25T04:02:34;95725.31;;;17.33
40047;BMP280;31510;48.122;11.576;2022-08-25T04:05:03;95730.44;;;17.31
40047;BMP280;31510;48.122;11.576;2022-08-25T04:07:30;95721.63;;;17.30
40047;BMP280;31510;48.122;11.576;2022-08-25T04:09:56;95728.50;;;17.31
40047;BMP280;31510;48.122;11.576;2022-08-25T04:12:22;95730.69;;;17.33
40047;BMP280;31510;48.122;11.576;2022-08-25T04:14:47;95730.69;;;17.33
40047;BMP280;31510;48.122;11.576;2022-08-25T04:17:12;95734.63;;;17.32
40047;BMP280;31510;48.122;11.576;2022-08-25T04:19:38;95740.50;;;17.30
40047;BMP280;31510;48.122;11.576;2022-08-25T04:22:07;95736.81;;;17.28
40047;BMP280;31510;48.122;11.576;2022-08-25T04:24:35;95743.16;;;17.25
40047;BMP280;31510;48.122;11.576;2022-08-25T04:27:00;95746.31;;;17.23
40047;BMP280;31510;48.122;11.576;2022-08-25T04:29:26;95740.94;;;17.23
40047;BMP280;31510;48.122;11.576;2022-08-25T04:31:52;95738.97;;;17.24
40047;BMP280;31510;48.122;11.576;2022-08-25T04:34:21;95733.84;;;17.26
40047;BMP280;31510;48.122;11.576;2022-08-25T04:36:50;95730.44;;;17.31
40047;BMP280;31510;48.122;11.576;2022-08-25T04:39:19;95730.19;;;17.29
40047;BMP280;31510;48.122;11.576;2022-08-25T04:41:48;95738.28;;;17.29
40047;BMP280;31510;48.122;11.576;2022-08-25T04:44:14;95732.59;;;17.21
40047;BMP280;31510;48.122;11.576;2022-08-25T04:46:40;95731.31;;;17.17
40047;BMP280;31510;48.122;11.576;2022-08-25T04:49:05;95729.41;;;17.18
40047;BMP280;31510;48.122;11.576;2022-08-25T04:51:34;95733.53;;;17.18
40047;BMP280;31510;48.122;11.576;2022-08-25T04:54:02;95737.25;;;17.21
40047;BMP280;31510;48.122;11.576;2022-08-25T04:56:31;95733.31;;;17.22
40047;BMP280;31510;48.122;11.576;2022-08-25T04:59:02;95738.94;;;17.18
40047;BMP280;31510;48.122;11.576;2022-08-25T05:01:28;95731.31;;;17.17
40047;BMP280;31510;48.122;11.576;2022-08-25T05:03:57;95733.00;;;17.15
40047;BMP280;31510;48.122;11.576;2022-08-25T05:06:24;95735.19;;;17.11
40047;BMP280;31510;48.122;11.576;2022-08-25T05:08:49;95737.13;;;17.10
40047;BMP280;31510;48.122;11.576;2022-08-25T05:11:16;95735.91;;;17.11
40047;BMP280;31510;48.122;11.576;2022-08-25T05:13:43;95737.41;;;17.12
40047;BMP280;31510;48.122;11.576;2022-08-25T05:16:08;95732.53;;;17.16
40047;BMP280;31510;48.122;11.576;2022-08-25T05:18:39;95730.56;;;17.17
40047;BMP280;31510;48.122;11.576;2022-08-25T05:21:09;95731.22;;;17.06
40047;BMP280;31510;48.122;11.576;2022-08-25T05:23:36;95729.94;;;16.96
40047;BMP280;31510;48.122;11.576;2022-08-25T05:26:07;95729.59;;;16.89
40047;BMP280;31510;48.122;11.576;2022-08-25T05:28:34;95728.16;;;16.88
40047;BMP280;31510;48.122;11.576;2022-08-25T05:31:01;95740.91;;;16.93
40047;BMP280;31510;48.122;11.576;2022-08-25T05:33:27;95735.31;;;16.96
40047;BMP280;31510;48.122;11.576;2022-08-25T05:35:52;95733.88;;;17.01
40047;BMP280;31510;48.122;11.576;2022-08-25T05:38:18;95717.44;;;16.99
40047;BMP280;31510;48.122;11.576;2022-08-25T05:40:43;95731.41;;;16.97
40047;BMP280;31510;48.122;11.576;2022-08-25T05:43:09;95724.59;;;17.02
40047;BMP280;31510;48.122;11.576;2022-08-25T05:45:34;95728.53;;;17.06
40047;BMP280;31510;48.122;11.576;2022-08-25T05:48:00;95718.75;;;17.09
40047;BMP280;31510;48.122;11.576;2022-08-25T05:50:25;95715.56;;;17.10
40047;BMP280;31510;48.122;11.576;2022-08-25T05:52:51;95728.63;;;17.17
40047;BMP280;31510;48.122;11.576;2022-08-25T05:55:17;95720.63;;;17.22
40047;BMP280;31510;48.122;11.576;2022-08-25T05:57:43;95733.09;;;17.25
40047;BMP280;31510;48.122;11.576;2022-08-25T06:00:09;95726.50;;;17.26
40047;BMP280;31510;48.122;11.576;2022-08-25T06:02:36;95723.34;;;17.28
40047;BMP280;31510;48.122;11.576;2022-08-25T06:05:09;95724.81;;;17.29
40047;BMP280;31510;48.122;11.576;2022-08-25T06:07:35;95718.94;;;17.30
40047;BMP280;31510;48.122;11.576;2022-08-25T06:10:03;95722.13;;;17.29
40047;BMP280;31510;48.122;11.576;2022-08-25T06:12:28;95718.44;;;17.26
40047;BMP280;31510;48.122;11.576;2022-08-25T06:14:54;95716.00;;;17.28
40047;BMP280;31510;48.122;11.576;2022-08-25T06:17:20;95714.06;;;17.34
40047;BMP280;31510;48.122;11.576;2022-08-25T06:19:46;95712.88;;;17.41
40047;BMP280;31510;48.122;11.576;2022-08-25T06:22:12;95704.31;;;17.42
40047;BMP280;31510;48.122;11.576;2022-08-25T06:24:37;95708.50;;;17.49
40047;BMP280;31510;48.122;11.576;2022-08-25T06:27:02;95709.78;;;17.53
40047;BMP280;31510;48.122;11.576;2022-08-25T06:29:27;95705.38;;;17.61
40047;BMP280;31510;48.122;11.576;2022-08-25T06:31:53;95709.63;;;17.73
40047;BMP280;31510;48.122;11.576;2022-08-25T06:34:18;95701.81;;;17.80
40047;BMP280;31510;48.122;11.576;2022-08-25T06:36:44;95703.56;;;17.89
40047;BMP280;31510;48.122;11.576;2022-08-25T06:39:09;95709.22;;;17.96
40047;BMP280;31510;48.122;11.576;2022-08-25T06:41:35;95711.97;;;18.01
40047;BMP280;31510;48.122;11.576;2022-08-25T06:44:01;95718.41;;;18.09
40047;BMP280;31510;48.122;11.576;2022-08-25T06:46:28;95711.31;;;18.17
40047;BMP280;31510;48.122;11.576;2022-08-25T06:48:55;95710.84;;;18.24
40047;BMP280;31510;48.122;11.576;2022-08-25T06:51:23;95710.38;;;18.31
40047;BMP280;31510;48.122;11.576;2022-08-25T06:53:50;95717.75;;;18.36
40047;BMP280;31510;48.122;11.576;2022-08-25T06:56:18;95719.50;;;18.44
40047;BMP280;31510;48.122;11.576;2022-08-25T06:58:44;95724.41;;;18.46
40047;BMP280;31510;48.122;11.576;2022-08-25T07:01:12;95730.53;;;18.52
40047;BMP280;31510;48.122;11.576;2022-08-25T07:03:38;95717.81;;;18.58
40047;BMP280;31510;48.122;11.576;2022-08-25T07:06:04;95713.16;;;18.64
40047;BMP280;31510;48.122;11.576;2022-08-25T07:08:29;95711.69;;;18.74
40047;BMP280;31510;48.122;11.576;2022-08-25T07:10:56;95713.41;;;18.82
40047;BMP280;31510;48.122;11.576;2022-08-25T07:13:21;95703.34;;;18.88
40047;BMP280;31510;48.122;11.576;2022-08-25T07:15:52;95713.19;;;18.96
40047;BMP280;31510;48.122;11.576;2022-08-25T07:18:18;95713.94;;;19.02
40047;BMP280;31510;48.122;11.576;2022-08-25T07:20:43;95716.88;;;19.10
40047;BMP280;31510;48.122;11.576;2022-08-25T07:23:08;95717.88;;;19.18
40047;BMP280;31510;48.122;11.576;2022-08-25T07:25:34;95702.63;;;19.25
40047;BMP280;31510;48.122;11.576;2022-08-25T07:28:00;95704.09;;;19.32
40047;BMP280;31510;48.122;11.576;2022-08-25T07:30:25;95710.47;;;19.40
40047;BMP280;31510;48.122;11.576;2022-08-25T07:32:51;95708.75;;;19.48
40047;BMP280;31510;48.122;11.576;2022-08-25T07:35:17;95706.03;;;19.53
40047;BMP280;31510;48.122;11.576;2022-08-25T07:37:49;95708.47;;;19.62
40047;BMP280;31510;48.122;11.576;2022-08-25T07:40:35;95705.47;;;19.71
40047;BMP280;31510;48.122;11.576;2022-08-25T07:43:04;95709.66;;;19.77
40047;BMP280;31510;48.122;11.576;2022-08-25T07:45:31;95707.69;;;19.83
40047;BMP280;31510;48.122;11.576;2022-08-25T07:48:06;95702.00;;;19.92
40047;BMP280;31510;48.122;11.576;2022-08-25T07:50:34;95700.00;;;19.98
40047;BMP280;31510;48.122;11.576;2022-08-25T07:52:59;95703.19;;;20.02
40047;BMP280;31510;48.122;11.576;2022-08-25T07:55:27;95700.72;;;20.04
40047;BMP280;31510;48.122;11.576;2022-08-25T07:57:53;95704.41;;;20.06
40047;BMP280;31510;48.122;11.576;2022-08-25T08:00:19;95712.97;;;20.16
40047;BMP280;31510;48.122;11.576;2022-08-25T08:02:45;95699.19;;;20.19
40047;BMP280;31510;48.122;11.576;2022-08-25T08:05:12;95718.09;;;20.25
40047;BMP280;31510;48.122;11.576;2022-08-25T08:07:38;95708.69;;;20.31
40047;BMP280;31510;48.122;11.576;2022-08-25T08:10:05;95712.88;;;20.38
40047;BMP280;31510;48.122;11.576;2022-08-25T08:12:33;95719.22;;;20.45
40047;BMP280;31510;48.122;11.576;2022-08-25T08:14:59;95710.56;;;20.52
40047;BMP280;31510;48.122;11.576;2022-08-25T08:17:25;95719.41;;;20.58
40047;BMP280;31510;48.122;11.576;2022-08-25T08:19:50;95712.72;;;20.65
40047;BMP280;31510;48.122;11.576;2022-08-25T08:22:16;95703.56;;;20.73
40047;BMP280;31510;48.122;11.576;2022-08-25T08:24:43;95702.28;;;20.80
40047;BMP280;31510;48.122;11.576;2022-08-25T08:27:12;95702.25;;;20.85
40047;BMP280;31510;48.122;11.576;2022-08-25T08:29:39;95700.72;;;20.89
40047;BMP280;31510;48.122;11.576;2022-08-25T08:32:06;95692.31;;;20.93
40047;BMP280;31510;48.122;11.576;2022-08-25T08:34:32;95698.44;;;20.99
40047;BMP280;31510;48.122;11.576;2022-08-25T08:36:58;95696.69;;;21.01
40047;BMP280;31510;48.122;11.576;2022-08-25T08:39:25;95695.41;;;21.08
40047;BMP280;31510;48.122;11.576;2022-08-25T08:51:21;95685.66;;;21.52
40047;BMP280;31510;48.122;11.576;2022-08-25T08:53:55;95689.28;;;21.60
40047;BMP280;31510;48.122;11.576;2022-08-25T08:56:35;95688.50;;;21.65
40047;BMP280;31510;48.122;11.576;2022-08-25T08:59:10;95672.66;;;21.69
40047;BMP280;31510;48.122;11.576;2022-08-25T09:01:56;95667.91;;;21.75
40047;BMP280;31510;48.122;11.576;2022-08-25T09:04:52;95669.31;;;21.81
40047;BMP280;31510;48.122;11.576;2022-08-25T09:07:23;95665.06;;;21.86
40047;BMP280;31510;48.122;11.576;2022-08-25T09:09:50;95667.94;;;21.93
40047;BMP280;31510;48.122;11.576;2022-08-25T09:12:32;95660.47;;;21.99
40047;BMP280;31510;48.122;11.576;2022-08-25T09:15:08;95662.16;;;22.02
40047;BMP280;31510;48.122;11.576;2022-08-25T09:20:48;95664.50;;;22.11
40047;BMP280;31510;48.122;11.576;2022-08-25T09:29:03;95669.91;;;22.16
40047;BMP280;31510;48.122;11.576;2022-08-25T09:31:37;95665.63;;;22.21
40047;BMP280;31510;48.122;11.576;2022-08-25T09:34:06;95658.66;;;22.25
40047;BMP280;31510;48.122;11.576;2022-08-25T09:36:35;95667.69;;;22.33
40047;BMP280;31510;48.122;11.576;2022-08-25T09:39:01;95658.22;;;22.40
40047;BMP280;31510;48.122;11.576;2022-08-25T09:44:22;95656.81;;;22.51
40047;BMP280;31510;48.122;11.576;2022-08-25T09:46:58;95656.00;;;22.56
40047;BMP280;31510;48.122;11.576;2022-08-25T09:49:47;95658.84;;;22.64
40047;BMP280;31510;48.122;11.576;2022-08-25T09:52:23;95658.56;;;22.67
40047;BMP280;31510;48.122;11.576;2022-08-25T09:54:51;95650.84;;;22.71
40047;BMP280;31510;48.122;11.576;2022-08-25T09:57:51;95645.09;;;22.75
40047;BMP280;31510;48.122;11.576;2022-08-25T10:00:22;95627.75;;;22.78
40047;BMP280;31510;48.122;11.576;2022-08-25T10:05:48;95631.31;;;22.85
40047;BMP280;31510;48.122;11.576;2022-08-25T10:11:12;95629.00;;;23.08
40047;BMP280;31510;48.122;11.576;2022-08-25T10:13:48;95640.94;;;23.18
40047;BMP280;31510;48.122;11.576;2022-08-25T10:16:27;95618.03;;;23.26
40047;BMP280;31510;48.122;11.576;2022-08-25T10:21:26;95618.47;;;23.30
40047;BMP280;31510;48.122;11.576;2022-08-25T10:23:52;95610.75;;;23.34
40047;BMP280;31510;48.122;11.576;2022-08-25T10:26:54;95612.09;;;23.40
40047;BMP280;31510;48.122;11.576;2022-08-25T10:35:44;95595.97;;;23.55
40047;BMP280;31510;48.122;11.576;2022-08-25T10:44:31;95603.97;;;23.66
40047;BMP280;31510;48.122;11.576;2022-08-25T10:50:19;95594.63;;;23.74
40047;BMP280;31510;48.122;11.576;2022-08-25T10:56:00;95593.66;;;23.98
40047;BMP280;31510;48.122;11.576;2022-08-25T11:04:02;95578.22;;;24.13
40047;BMP280;31510;48.122;11.576;2022-08-25T11:06:42;95577.69;;;24.14
40047;BMP280;31510;48.122;11.576;2022-08-25T11:09:12;95586.59;;;24.15
40047;BMP280;31510;48.122;11.576;2022-08-25T11:14:42;95577.53;;;24.33
40047;BMP280;31510;48.122;11.576;2022-08-25T11:17:21;95588.63;;;24.35
40047;BMP280;31510;48.122;11.576;2022-08-25T11:19:51;95584.88;;;24.38
40047;BMP280;31510;48.122;11.576;2022-08-25T11:22:44;95585.78;;;24.40
40047;BMP280;31510;48.122;11.576;2022-08-25T11:25:19;95583.13;;;24.47
40047;BMP280;31510;48.122;11.576;2022-08-25T11:30:30;95565.25;;;24.59
40047;BMP280;31510;48.122;11.576;2022-08-25T11:32:55;95560.44;;;24.65
40047;BMP280;31510;48.122;11.576;2022-08-25T11:35:31;95563.53;;;24.69
40047;BMP280;31510;48.122;11.576;2022-08-25T11:40:53;95568.00;;;24.80
40047;BMP280;31510;48.122;11.576;2022-08-25T11:46:30;95538.44;;;24.91
40047;BMP280;31510;48.122;11.576;2022-08-25T11:51:48;95533.38;;;25.15
40047;BMP280;31510;48.122;11.576;2022-08-25T11:54:22;95529.44;;;25.24
40047;BMP280;31510;48.122;11.576;2022-08-25T11:57:03;95528.19;;;25.32
40047;BMP280;31510;48.122;11.576;2022-08-25T12:02:30;95530.22;;;25.39
40047;BMP280;31510;48.122;11.576;2022-08-25T12:04:56;95532.44;;;25.48
40047;BMP280;31510;48.122;11.576;2022-08-25T12:07:28;95537.44;;;25.57
40047;BMP280;31510;48.122;11.576;2022-08-25T12:15:53;95525.81;;;25.64
40047;BMP280;31510;48.122;11.576;2022-08-25T12:23:44;95534.47;;;25.82
40047;BMP280;31510;48.122;11.576;2022-08-25T12:26:21;95531.19;;;25.84
40047;BMP280;31510;48.122;11.576;2022-08-25T12:31:28;95536.88;;;25.93
40047;BMP280;31510;48.122;11.576;2022-08-25T12:34:06;95533.25;;;25.98
40047;BMP280;31510;48.122;11.576;2022-08-25T12:36:34;95538.94;;;26.08
40047;BMP280;31510;48.122;11.576;2022-08-25T12:39:36;95538.56;;;26.11
40047;BMP280;31510;48.122;11.576;2022-08-25T12:42:20;95530.75;;;26.15
40047;BMP280;31510;48.122;11.576;2022-08-25T12:44:47;95536.44;;;26.24
40047;BMP280;31510;48.122;11.576;2022-08-25T12:47:31;95524.97;;;26.33
40047;BMP280;31510;48.122;11.576;2022-08-25T12:50:43;95532.47;;;26.40
40047;BMP280;31510;48.122;11.576;2022-08-25T12:53:21;95512.06;;;26.49
40047;BMP280;31510;48.122;11.576;2022-08-25T12:55:52;95524.25;;;26.48
40047;BMP280;31510;48.122;11.576;2022-08-25T12:58:18;95518.06;;;26.40
40047;BMP280;31510;48.122;11.576;2022-08-25T13:00:56;95516.06;;;26.40
40047;BMP280;31510;48.122;11.576;2022-08-25T13:06:23;95514.81;;;26.49
40047;BMP280;31510;48.122;11.576;2022-08-25T13:11:55;95513.13;;;26.23
40047;BMP280;31510;48.122;11.576;2022-08-25T13:14:38;95510.88;;;26.14
40047;BMP280;31510;48.122;11.576;2022-08-25T13:17:04;95497.22;;;26.07
40047;BMP280;31510;48.122;11.576;2022-08-25T13:19:29;95494.28;;;25.98
40047;BMP280;31510;48.122;11.576;2022-08-25T13:21:56;95498.09;;;25.95
40047;BMP280;31510;48.122;11.576;2022-08-25T13:24:30;95496.47;;;25.99
40047;BMP280;31510;48.122;11.576;2022-08-25T13:27:03;95492.28;;;26.06
40047;BMP280;31510;48.122;11.576;2022-08-25T13:29:31;95495.94;;;26.08
40047;BMP280;31510;48.122;11.576;2022-08-25T13:34:27;95490.13;;;26.11
40047;BMP280;31510;48.122;11.576;2022-08-25T13:36:54;95490.13;;;26.11
40047;BMP280;31510;48.122;11.576;2022-08-25T13:39:39;95480.63;;;26.12
40047;BMP280;31510;48.122;11.576;2022-08-25T13:42:10;95487.75;;;26.15
40047;BMP280;31510;48.122;11.576;2022-08-25T13:44:36;95480.09;;;26.21
40047;BMP280;31510;48.122;11.576;2022-08-25T13:47:16;95480.09;;;26.21
40047;BMP280;31510;48.122;11.576;2022-08-25T13:49:45;95473.41;;;26.22
40047;BMP280;31510;48.122;11.576;2022-08-25T13:52:24;95487.22;;;26.17
40047;BMP280;31510;48.122;11.576;2022-08-25T13:54:50;95478.84;;;26.15
40047;BMP280;31510;48.122;11.576;2022-08-25T13:57:24;95481.03;;;26.16
40047;BMP280;31510;48.122;11.576;2022-08-25T13:59:53;95471.19;;;26.21
40047;BMP280;31510;48.122;11.576;2022-08-25T14:02:44;95467.41;;;26.24
40047;BMP280;31510;48.122;11.576;2022-08-25T14:05:11;95475.06;;;26.25
40047;BMP280;31510;48.122;11.576;2022-08-25T14:07:37;95479.06;;;26.24
40047;BMP280;31510;48.122;11.576;2022-08-25T14:10:10;95475.06;;;26.25
40047;BMP280;31510;48.122;11.576;2022-08-25T14:12:40;95464.47;;;26.29
40047;BMP280;31510;48.122;11.576;2022-08-25T14:17:57;95466.84;;;26.33
40047;BMP280;31510;48.122;11.576;2022-08-25T14:20:25;95463.22;;;26.38
40047;BMP280;31510;48.122;11.576;2022-08-25T14:22:56;95462.09;;;26.41
40047;BMP280;31510;48.122;11.576;2022-08-25T14:25:23;95469.41;;;26.46
40047;BMP280;31510;48.122;11.576;2022-08-25T14:27:56;95469.41;;;26.46
40047;BMP280;31510;48.122;11.576;2022-08-25T14:30:22;95466.50;;;26.44
40047;BMP280;31510;48.122;11.576;2022-08-25T14:32:47;95459.19;;;26.46
40047;BMP280;31510;48.122;11.576;2022-08-25T14:35:12;95458.66;;;26.48
40047;BMP280;31510;48.122;11.576;2022-08-25T14:37:38;95455.75;;;26.46
40047;BMP280;31510;48.122;11.576;2022-08-25T14:40:03;95458.81;;;26.49
40047;BMP280;31510;48.122;11.576;2022-08-25T14:42:29;95452.81;;;26.51
40047;BMP280;31510;48.122;11.576;2022-08-25T14:44:54;95457.75;;;26.45
40047;BMP280;31510;48.122;11.576;2022-08-25T14:47:19;95451.75;;;26.39
40047;BMP280;31510;48.122;11.576;2022-08-25T14:49:45;95452.66;;;26.34
40047;BMP280;31510;48.122;11.576;2022-08-25T14:52:19;95461.75;;;26.29
40047;BMP280;31510;48.122;11.576;2022-08-25T14:54:46;95450.47;;;26.25
40047;BMP280;31510;48.122;11.576;2022-08-25T14:57:11;95464.13;;;26.25
40047;BMP280;31510;48.122;11.576;2022-08-25T14:59:37;95451.53;;;26.22
40047;BMP280;31510;48.122;11.576;2022-08-25T15:02:04;95446.06;;;26.22
40047;BMP280;31510;48.122;11.576;2022-08-25T15:04:34;95442.59;;;26.22
40047;BMP280;31510;48.122;11.576;2022-08-25T15:06:59;95447.31;;;26.21
40047;BMP280;31510;48.122;11.576;2022-08-25T15:09:26;95437.88;;;26.22
40047;BMP280;31510;48.122;11.576;2022-08-25T15:11:54;95439.09;;;26.21
40047;BMP280;31510;48.122;11.576;2022-08-25T15:14:21;95437.66;;;26.20
40047;BMP280;31510;48.122;11.576;2022-08-25T15:16:55;95428.91;;;26.14
40047;BMP280;31510;48.122;11.576;2022-08-25T15:19:24;95445.13;;;26.05
40047;BMP280;31510;48.122;11.576;2022-08-25T15:21:51;95440.38;;;25.98
40047;BMP280;31510;48.122;11.576;2022-08-25T15:24:17;95453.13;;;25.96
40047;BMP280;31510;48.122;11.576;2022-08-25T15:26:53;95447.47;;;25.94
40047;BMP280;31510;48.122;11.576;2022-08-25T15:29:19;95452.53;;;25.90
40047;BMP280;31510;48.122;11.576;2022-08-25T15:31:45;95449.06;;;25.82
40047;BMP280;31510;48.122;11.576;2022-08-25T15:34:10;95460.91;;;25.77
40047;BMP280;31510;48.122;11.576;2022-08-25T15:36:37;95451.25;;;25.76
40047;BMP280;31510;48.122;11.576;2022-08-25T15:39:03;95449.06;;;25.74
40047;BMP280;31510;48.122;11.576;2022-08-25T15:41:28;95447.59;;;25.73
40047;BMP280;31510;48.122;11.576;2022-08-25T15:43:55;95443.56;;;25.67
40047;BMP280;31510;48.122;11.576;2022-08-25T15:46:22;95445.91;;;25.63
40047;BMP280;31510;48.122;11.576;2022-08-25T15:48:48;95446.28;;;25.60